createdAt,value
2018-05-31T00:00:55.865Z,52.55
2018-05-31T00:02:05.049Z,52.45
2018-05-31T00:03:15.775Z,52.55
2018-05-31T00:04:25.790Z,52.35
2018-05-31T00:05:34.722Z,52.45
2018-05-31T00:06:44.267Z,52.35
2018-05-31T00:07:53.970Z,52.45
2018-05-31T00:09:03.746Z,52.45
2018-05-31T00:10:13.474Z,52.35
2018-05-31T00:11:22.988Z,52.06
2018-05-31T00:12:32.461Z,52.35
2018-05-31T00:13:42.187Z,52.45
2018-05-31T00:14:51.097Z,52.55
2018-05-31T00:16:00.814Z,52.45
2018-05-31T00:17:10.030Z,52.55
2018-05-31T00:18:19.489Z,52.55
2018-05-31T00:19:28.995Z,52.35
2018-05-31T00:20:38.695Z,52.64
2018-05-31T00:21:47.875Z,52.45
2018-05-31T00:22:57.098Z,52.25
2018-05-31T00:24:06.600Z,52.64
2018-05-31T00:25:16.518Z,52.35
2018-05-31T00:26:26.071Z,52.45
2018-05-31T00:27:35.783Z,52.45
2018-05-31T00:28:45.233Z,52.45
2018-05-31T00:29:55.228Z,52.55
2018-05-31T00:31:04.962Z,51.97
2018-05-31T00:32:14.713Z,52.45
2018-05-31T00:33:23.963Z,52.55
2018-05-31T00:34:33.678Z,52.45
2018-05-31T00:35:43.577Z,52.35
2018-05-31T00:36:53.972Z,52.15
2018-05-31T00:38:03.745Z,52.45
2018-05-31T00:39:13.896Z,52.35
2018-05-31T00:40:24.092Z,52.35
2018-05-31T00:41:33.857Z,52.25
2018-05-31T00:42:43.382Z,52.45
2018-05-31T00:43:53.430Z,52.55
2018-05-31T00:45:03.159Z,52.55
2018-05-31T00:46:12.083Z,53.13
2018-05-31T00:47:21.295Z,53.13
2018-05-31T00:48:30.794Z,52.45
2018-05-31T00:49:39.999Z,52.84
2018-05-31T00:50:49.460Z,52.94
2018-05-31T00:51:58.940Z,52.64
2018-05-31T00:53:08.117Z,52.94
2018-05-31T00:54:17.312Z,52.45
2018-05-31T00:55:26.821Z,52.94
2018-05-31T00:56:36.558Z,52.94
2018-05-31T00:57:46.283Z,53.03
2018-05-31T00:58:55.784Z,53.03
2018-05-31T01:00:05.245Z,52.94
2018-05-31T01:01:14.447Z,53.03
2018-05-31T01:02:24.467Z,52.74
2018-05-31T01:03:33.652Z,53.03
2018-05-31T01:04:43.101Z,52.64
2018-05-31T01:05:52.286Z,52.74
2018-05-31T01:07:02.051Z,52.74
2018-05-31T01:08:11.818Z,52.74
2018-05-31T01:09:21.535Z,52.55
2018-05-31T01:10:31.282Z,52.94
2018-05-31T01:11:42.042Z,52.84
2018-05-31T01:12:52.994Z,52.84
2018-05-31T01:14:01.644Z,52.94
2018-05-31T01:15:11.260Z,52.64
2018-05-31T01:16:21.000Z,52.72
2018-05-31T01:17:30.449Z,52.84
2018-05-31T01:18:39.911Z,52.74
2018-05-31T01:19:50.365Z,52.84
2018-05-31T01:20:59.832Z,52.94
2018-05-31T01:22:09.294Z,53.22
2018-05-31T01:23:18.775Z,53.03
2018-05-31T01:24:28.250Z,52.94
2018-05-31T01:25:37.695Z,53.32
2018-05-31T01:26:47.147Z,53.03
2018-05-31T01:27:56.363Z,53.03
2018-05-31T01:29:05.536Z,53.03
2018-05-31T01:30:15.035Z,53.03
2018-05-31T01:31:24.505Z,53.03
2018-05-31T01:32:33.456Z,52.94
2018-05-31T01:33:42.636Z,53.13
2018-05-31T01:34:52.676Z,52.84
2018-05-31T01:36:02.424Z,52.91
2018-05-31T01:37:11.629Z,53.1
2018-05-31T01:38:21.122Z,53.13
2018-05-31T01:39:30.653Z,53.03
2018-05-31T01:40:40.130Z,53.13
2018-05-31T01:41:49.577Z,53.1
2018-05-31T01:42:59.066Z,52.74
2018-05-31T01:44:08.528Z,52.84
2018-05-31T01:45:18.524Z,53.13
2018-05-31T01:46:29.051Z,52.72
2018-05-31T01:47:40.536Z,53.1
2018-05-31T01:48:51.394Z,52.62
2018-05-31T01:50:00.330Z,52.62
2018-05-31T01:51:09.846Z,53.1
2018-05-31T01:52:19.582Z,52.81
2018-05-31T01:53:29.725Z,52.91
2018-05-31T01:54:39.769Z,53.49
2018-05-31T01:55:48.983Z,53.49
2018-05-31T01:56:58.669Z,53.39
2018-05-31T01:58:08.401Z,53.59
2018-05-31T01:59:17.661Z,53.3
2018-05-31T02:00:27.204Z,53.2
2018-05-31T02:01:36.945Z,53.2
2018-05-31T02:02:46.728Z,53.2
2018-05-31T02:03:56.234Z,53.2
2018-05-31T02:05:04.900Z,53.39
2018-05-31T02:06:14.633Z,53.59
2018-05-31T02:07:24.350Z,53.49
2018-05-31T02:08:33.871Z,53.39
2018-05-31T02:09:43.634Z,53.69
2018-05-31T02:10:53.087Z,53.39
2018-05-31T02:12:02.529Z,53.88
2018-05-31T02:13:12.000Z,53.49
2018-05-31T02:14:21.746Z,53.69
2018-05-31T02:15:30.713Z,53.59
2018-05-31T02:16:39.629Z,53.69
2018-05-31T02:17:49.137Z,53.69
2018-05-31T02:18:58.893Z,53.39
2018-05-31T02:20:09.388Z,53.49
2018-05-31T02:21:20.497Z,53.69
2018-05-31T02:22:30.717Z,53.59
2018-05-31T02:23:40.701Z,53.39
2018-05-31T02:24:49.644Z,53.75
2018-05-31T02:25:59.130Z,53.27
2018-05-31T02:27:08.603Z,53.56
2018-05-31T02:28:17.779Z,53.27
2018-05-31T02:29:27.256Z,53.37
2018-05-31T02:30:36.449Z,53.85
2018-05-31T02:31:46.471Z,54.17
2018-05-31T02:32:55.922Z,53.37
2018-05-31T02:34:05.358Z,53.37
2018-05-31T02:35:14.649Z,53.37
2018-05-31T02:36:23.837Z,53.47
2018-05-31T02:37:33.298Z,53.47
2018-05-31T02:38:42.756Z,53.37
2018-05-31T02:39:51.955Z,53.37
2018-05-31T02:41:01.481Z,53.47
2018-05-31T02:42:10.989Z,53.37
2018-05-31T02:43:20.183Z,53.47
2018-05-31T02:44:29.099Z,53.47
2018-05-31T02:45:38.610Z,53.17
2018-05-31T02:46:47.288Z,53.66
2018-05-31T02:47:56.490Z,53.75
2018-05-31T02:49:05.940Z,53.27
2018-05-31T02:50:15.371Z,53.66
2018-05-31T02:51:24.845Z,53.75
2018-05-31T02:52:34.861Z,53.75
2018-05-31T02:53:44.368Z,53.47
2018-05-31T02:54:53.559Z,53.75
2018-05-31T02:56:02.735Z,53.56
2018-05-31T02:57:12.732Z,53.47
2018-05-31T02:58:22.710Z,53.56
2018-05-31T02:59:33.720Z,53.47
2018-05-31T03:00:44.546Z,53.56
2018-05-31T03:01:54.480Z,53.56
2018-05-31T03:03:03.690Z,53.37
2018-05-31T03:04:13.147Z,53.47
2018-05-31T03:05:22.357Z,53.66
2018-05-31T03:06:31.809Z,53.37
2018-05-31T03:07:41.645Z,53.56
2018-05-31T03:08:50.672Z,53.56
2018-05-31T03:10:00.673Z,53.37
2018-05-31T03:11:09.346Z,53.66
2018-05-31T03:12:19.096Z,53.56
2018-05-31T03:13:28.308Z,53.47
2018-05-31T03:14:38.040Z,53.47
2018-05-31T03:15:47.261Z,53.75
2018-05-31T03:16:56.463Z,53.66
2018-05-31T03:18:06.204Z,53.66
2018-05-31T03:19:15.437Z,53.56
2018-05-31T03:20:25.160Z,53.75
2018-05-31T03:21:34.627Z,53.66
2018-05-31T03:22:43.821Z,53.75
2018-05-31T03:23:53.587Z,53.75
2018-05-31T03:25:02.523Z,53.75
2018-05-31T03:26:11.730Z,53.75
2018-05-31T03:27:21.178Z,53.75
2018-05-31T03:28:30.373Z,53.75
2018-05-31T03:29:40.070Z,53.17
2018-05-31T03:30:49.544Z,53.47
2018-05-31T03:31:59.548Z,53.27
2018-05-31T03:33:09.312Z,53.66
2018-05-31T03:34:19.068Z,53.66
2018-05-31T03:35:29.052Z,53.47
2018-05-31T03:36:38.291Z,53.95
2018-05-31T03:37:48.788Z,53.75
2018-05-31T03:38:58.727Z,53.66
2018-05-31T03:40:09.725Z,53.27
2018-05-31T03:41:18.905Z,53.27
2018-05-31T03:42:28.095Z,53.85
2018-05-31T03:43:37.545Z,53.75
2018-05-31T03:44:46.975Z,53.37
2018-05-31T03:45:56.177Z,53.27
2018-05-31T03:47:05.650Z,53.47
2018-05-31T03:48:15.380Z,54.05
2018-05-31T03:49:24.572Z,53.47
2018-05-31T03:50:34.299Z,53.47
2018-05-31T03:51:43.746Z,53.47
2018-05-31T03:52:53.792Z,54.14
2018-05-31T03:54:03.273Z,53.37
2018-05-31T03:55:13.002Z,53.47
2018-05-31T03:56:22.194Z,53.37
2018-05-31T03:57:31.668Z,54.14
2018-05-31T03:58:41.416Z,53.27
2018-05-31T03:59:50.319Z,53.47
2018-05-31T04:00:59.494Z,53.95
2018-05-31T04:02:08.951Z,53.37
2018-05-31T04:03:18.142Z,54.05
2018-05-31T04:04:28.140Z,53.37
2018-05-31T04:05:38.125Z,53.75
2018-05-31T04:06:47.294Z,53.37
2018-05-31T04:07:56.805Z,53.37
2018-05-31T04:09:06.513Z,53.27
2018-05-31T04:10:16.231Z,53.37
2018-05-31T04:11:25.420Z,53.27
2018-05-31T04:12:34.898Z,53.17
2018-05-31T04:13:45.587Z,53.66
2018-05-31T04:14:55.263Z,53.56
2018-05-31T04:16:05.281Z,53.47
2018-05-31T04:17:15.606Z,53.47
2018-05-31T04:18:25.553Z,53.66
2018-05-31T04:19:34.757Z,53.85
2018-05-31T04:20:44.461Z,53.66
2018-05-31T04:21:54.448Z,53.66
2018-05-31T04:23:03.928Z,53.75
2018-05-31T04:24:12.844Z,53.75
2018-05-31T04:25:22.301Z,53.66
2018-05-31T04:26:31.773Z,53.75
2018-05-31T04:27:40.958Z,53.66
2018-05-31T04:28:50.427Z,53.56
2018-05-31T04:29:59.874Z,53.56
2018-05-31T04:31:09.335Z,53.75
2018-05-31T04:32:18.837Z,53.75
2018-05-31T04:33:28.300Z,53.75
2018-05-31T04:34:38.369Z,53.75
2018-05-31T04:35:48.143Z,53.37
2018-05-31T04:36:57.646Z,53.17
2018-05-31T04:38:07.100Z,53.37
2018-05-31T04:39:16.270Z,53.37
2018-05-31T04:40:26.003Z,53.27
2018-05-31T04:41:34.908Z,53.47
2018-05-31T04:42:44.350Z,53.47
2018-05-31T04:43:53.253Z,53.37
2018-05-31T04:45:02.973Z,53.56
2018-05-31T04:46:11.903Z,53.08
2018-05-31T04:47:21.363Z,53.17
2018-05-31T04:48:30.541Z,52.88
2018-05-31T04:49:40.252Z,53.08
2018-05-31T04:50:49.172Z,52.98
2018-05-31T04:51:58.105Z,53.56
2018-05-31T04:53:07.823Z,52.78
2018-05-31T04:54:17.169Z,53.75
2018-05-31T04:55:27.192Z,53.27
2018-05-31T04:56:37.231Z,53.17
2018-05-31T04:57:47.812Z,52.78
2018-05-31T04:58:57.807Z,53.17
2018-05-31T05:00:06.998Z,52.59
2018-05-31T05:01:16.684Z,52.59
2018-05-31T05:02:26.376Z,52.69
2018-05-31T05:03:35.842Z,52.59
2018-05-31T05:04:45.565Z,52.69
2018-05-31T05:05:55.299Z,53.08
2018-05-31T05:07:04.763Z,52.59
2018-05-31T05:08:14.216Z,52.88
2018-05-31T05:09:23.682Z,53.17
2018-05-31T05:10:32.879Z,52.88
2018-05-31T05:11:42.617Z,52.78
2018-05-31T05:12:52.340Z,52.88
2018-05-31T05:14:02.083Z,52.88
2018-05-31T05:15:11.829Z,52.78
2018-05-31T05:16:21.012Z,52.98
2018-05-31T05:17:30.214Z,53.08
2018-05-31T05:18:39.697Z,52.98
2018-05-31T05:19:48.612Z,52.98
2018-05-31T05:20:58.087Z,52.88
2018-05-31T05:22:07.365Z,52.98
2018-05-31T05:23:16.278Z,52.98
2018-05-31T05:24:25.475Z,52.98
2018-05-31T05:25:34.929Z,53.08
2018-05-31T05:26:44.104Z,52.88
2018-05-31T05:27:53.028Z,52.88
2018-05-31T05:29:02.746Z,52.78
2018-05-31T05:30:12.480Z,52.78
2018-05-31T05:31:23.017Z,52.98
2018-05-31T05:32:33.243Z,52.88
2018-05-31T05:33:43.302Z,53.08
2018-05-31T05:34:53.309Z,52.59
2018-05-31T05:36:03.117Z,53.08
2018-05-31T05:37:12.877Z,52.98
2018-05-31T05:38:22.346Z,52.88
2018-05-31T05:39:32.083Z,52.88
2018-05-31T05:40:40.722Z,53.17
2018-05-31T05:41:50.191Z,53.17
2018-05-31T05:42:59.672Z,52.88
2018-05-31T05:44:08.868Z,53.17
2018-05-31T05:45:18.315Z,53.17
2018-05-31T05:46:27.503Z,53.17
2018-05-31T05:47:37.023Z,53.17
2018-05-31T05:48:46.452Z,53.17
2018-05-31T05:49:55.660Z,53.17
2018-05-31T05:51:05.421Z,53.17
2018-05-31T05:52:14.601Z,52.69
2018-05-31T05:53:24.072Z,52.88
2018-05-31T05:54:33.529Z,52.59
2018-05-31T05:55:43.274Z,52.69
2018-05-31T05:56:53.003Z,52.69
2018-05-31T05:58:02.748Z,52.5
2018-05-31T05:59:12.199Z,52.5
2018-05-31T06:00:21.424Z,52.59
2018-05-31T06:01:30.618Z,52.59
2018-05-31T06:02:40.611Z,52.88
2018-05-31T06:03:50.085Z,52.78
2018-05-31T06:04:59.552Z,52.69
2018-05-31T06:06:09.016Z,52.88
2018-05-31T06:07:18.241Z,52.5
2018-05-31T06:08:27.435Z,52.88
2018-05-31T06:09:36.910Z,52.91
2018-05-31T06:10:46.606Z,52.88
2018-05-31T06:11:56.054Z,52.88
2018-05-31T06:13:05.280Z,52.88
2018-05-31T06:14:15.271Z,52.88
2018-05-31T06:15:25.357Z,52.98
2018-05-31T06:16:36.504Z,52.88
2018-05-31T06:17:45.965Z,52.91
2018-05-31T06:18:55.702Z,53
2018-05-31T06:20:05.460Z,52.88
2018-05-31T06:21:14.372Z,52.88
2018-05-31T06:22:23.817Z,53
2018-05-31T06:23:33.026Z,52.62
2018-05-31T06:24:42.574Z,52.69
2018-05-31T06:25:52.038Z,52.88
2018-05-31T06:27:01.228Z,52.98
2018-05-31T06:28:10.952Z,52.98
2018-05-31T06:29:20.135Z,52.88
2018-05-31T06:30:29.606Z,52.91
2018-05-31T06:31:39.340Z,52.88
2018-05-31T06:32:47.984Z,52.98
2018-05-31T06:33:57.433Z,52.88
2018-05-31T06:35:07.483Z,52.78
2018-05-31T06:36:17.420Z,52.59
2018-05-31T06:37:26.644Z,52.69
2018-05-31T06:38:36.075Z,52.88
2018-05-31T06:39:45.763Z,52.98
2018-05-31T06:40:55.259Z,52.59
2018-05-31T06:42:04.156Z,52.88
2018-05-31T06:43:13.860Z,52.59
2018-05-31T06:44:23.287Z,52.59
2018-05-31T06:45:32.971Z,52.59
2018-05-31T06:46:42.170Z,52.78
2018-05-31T06:47:51.848Z,52.78
2018-05-31T06:49:01.274Z,52.69
2018-05-31T06:50:10.449Z,52.98
2018-05-31T06:51:20.378Z,52.88
2018-05-31T06:52:29.539Z,52.88
2018-05-31T06:53:38.705Z,53.08
2018-05-31T06:54:48.115Z,52.98
2018-05-31T06:55:57.810Z,52.78
2018-05-31T06:57:07.230Z,52.88
2018-05-31T06:58:16.641Z,52.98
2018-05-31T06:59:26.322Z,52.5
2018-05-31T07:00:35.991Z,52.88
2018-05-31T07:01:44.904Z,52.5
2018-05-31T07:02:53.796Z,52.2
2018-05-31T07:04:03.233Z,52.5
2018-05-31T07:05:12.387Z,52.78
2018-05-31T07:06:22.081Z,52.3
2018-05-31T07:07:31.507Z,52.3
2018-05-31T07:08:41.210Z,52.2
2018-05-31T07:09:50.368Z,52.5
2018-05-31T07:10:59.800Z,52.69
2018-05-31T07:12:09.262Z,52.5
2018-05-31T07:13:19.235Z,52.52
2018-05-31T07:14:28.412Z,52.4
2018-05-31T07:15:38.361Z,52.5
2018-05-31T07:16:47.535Z,52.3
2018-05-31T07:17:56.567Z,52.3
2018-05-31T07:19:06.014Z,52.4
2018-05-31T07:20:15.708Z,52.59
2018-05-31T07:21:25.027Z,52.4
2018-05-31T07:22:33.749Z,52.4
2018-05-31T07:23:43.494Z,52.3
2018-05-31T07:24:52.934Z,52.33
2018-05-31T07:26:02.103Z,52.4
2018-05-31T07:27:11.338Z,52.4
2018-05-31T07:28:21.585Z,52.3
2018-05-31T07:29:31.793Z,52.3
2018-05-31T07:30:40.996Z,52.59
2018-05-31T07:31:50.724Z,52.3
2018-05-31T07:32:59.942Z,52.5
2018-05-31T07:34:08.852Z,52.2
2018-05-31T07:35:18.289Z,52.3
2018-05-31T07:36:27.193Z,52.3
2018-05-31T07:37:36.394Z,52.3
2018-05-31T07:38:46.159Z,52.33
2018-05-31T07:39:55.338Z,52.3
2018-05-31T07:41:04.522Z,52.3
2018-05-31T07:42:14.239Z,52.4
2018-05-31T07:43:23.669Z,52.11
2018-05-31T07:44:33.165Z,52.2
2018-05-31T07:45:42.850Z,51.91
2018-05-31T07:46:52.533Z,52.01
2018-05-31T07:48:02.199Z,52.3
2018-05-31T07:49:11.634Z,51.62
2018-05-31T07:50:21.589Z,52.11
2018-05-31T07:51:31.211Z,51.81
2018-05-31T07:52:40.418Z,51.81
2018-05-31T07:53:49.874Z,52.13
2018-05-31T07:54:58.802Z,52.03
2018-05-31T07:56:08.547Z,52.23
2018-05-31T07:57:17.995Z,52.23
2018-05-31T07:58:27.160Z,52.23
2018-05-31T07:59:36.592Z,52.13
2018-05-31T08:00:46.020Z,52.23
2018-05-31T08:01:55.184Z,52.13
2018-05-31T08:03:04.882Z,52.03
2018-05-31T08:04:13.802Z,52.13
2018-05-31T08:05:23.496Z,52.33
2018-05-31T08:06:32.644Z,51.65
2018-05-31T08:07:41.820Z,52.23
2018-05-31T08:08:50.737Z,52.23
2018-05-31T08:10:00.152Z,52.13
2018-05-31T08:11:10.045Z,52.13
2018-05-31T08:12:19.567Z,51.93
2018-05-31T08:13:29.398Z,52.23
2018-05-31T08:14:39.348Z,52.23
2018-05-31T08:15:48.524Z,52.03
2018-05-31T08:16:57.476Z,52.03
2018-05-31T08:18:07.183Z,52.03
2018-05-31T08:19:16.636Z,52.03
2018-05-31T08:20:26.076Z,52.23
2018-05-31T08:21:35.510Z,52.13
2018-05-31T08:22:44.422Z,52.13
2018-05-31T08:23:54.152Z,52.13
2018-05-31T08:25:04.100Z,52.13
2018-05-31T08:26:13.540Z,52.13
2018-05-31T08:27:23.236Z,52.03
2018-05-31T08:28:32.948Z,52.13
2018-05-31T08:29:42.141Z,52.13
2018-05-31T08:30:51.319Z,52.13
2018-05-31T08:32:01.052Z,51.93
2018-05-31T08:33:10.247Z,52.13
2018-05-31T08:34:19.677Z,51.93
2018-05-31T08:35:28.589Z,52.23
2018-05-31T08:36:38.524Z,52.13
2018-05-31T08:37:47.935Z,52.23
2018-05-31T08:38:57.191Z,52.23
2018-05-31T08:40:06.688Z,52.03
2018-05-31T08:41:16.384Z,52.23
2018-05-31T08:42:26.059Z,52.23
2018-05-31T08:43:35.225Z,52.23
2018-05-31T08:44:44.693Z,52.23
2018-05-31T08:45:53.853Z,52.23
2018-05-31T08:47:03.530Z,52.33
2018-05-31T08:48:12.707Z,52.13
2018-05-31T08:49:22.386Z,51.93
2018-05-31T08:50:31.561Z,52.23
2018-05-31T08:51:41.564Z,52.42
2018-05-31T08:52:52.606Z,52.33
2018-05-31T08:54:03.165Z,52.03
2018-05-31T08:55:13.547Z,52.33
2018-05-31T08:56:22.974Z,51.93
2018-05-31T08:57:32.669Z,51.84
2018-05-31T08:58:42.104Z,51.93
2018-05-31T08:59:51.544Z,51.84
2018-05-31T09:01:00.440Z,51.93
2018-05-31T09:02:10.211Z,51.93
2018-05-31T09:03:19.641Z,51.55
2018-05-31T09:04:29.341Z,51.75
2018-05-31T09:05:38.767Z,51.65
2018-05-31T09:06:48.212Z,51.65
2018-05-31T09:07:57.643Z,51.55
2018-05-31T09:09:07.601Z,51.65
2018-05-31T09:10:17.049Z,51.75
2018-05-31T09:11:26.740Z,51.75
2018-05-31T09:12:35.783Z,51.75
2018-05-31T09:13:45.854Z,51.75
2018-05-31T09:14:55.019Z,51.55
2018-05-31T09:16:04.186Z,51.55
2018-05-31T09:17:13.399Z,51.55
2018-05-31T09:18:22.861Z,51.75
2018-05-31T09:19:32.302Z,51.26
2018-05-31T09:20:42.185Z,51.35
2018-05-31T09:21:52.240Z,51.45
2018-05-31T09:23:01.827Z,51.65
2018-05-31T09:24:11.246Z,51.65
2018-05-31T09:25:20.675Z,51.55
2018-05-31T09:26:30.427Z,51.65
2018-05-31T09:27:40.419Z,51.18
2018-05-31T09:28:49.834Z,51.45
2018-05-31T09:29:59.260Z,51.38
2018-05-31T09:31:09.190Z,51.09
2018-05-31T09:32:18.800Z,51.38
2018-05-31T09:33:27.793Z,51.09
2018-05-31T09:34:37.217Z,51.48
2018-05-31T09:35:46.906Z,51.35
2018-05-31T09:36:56.480Z,51.38
2018-05-31T09:38:07.391Z,51.26
2018-05-31T09:39:17.430Z,51.26
2018-05-31T09:40:26.869Z,51.57
2018-05-31T09:41:37.018Z,51.28
2018-05-31T09:42:46.178Z,51.57
2018-05-31T09:43:55.603Z,51.55
2018-05-31T09:45:05.037Z,51.16
2018-05-31T09:46:14.467Z,51.28
2018-05-31T09:47:24.365Z,51.57
2018-05-31T09:48:33.303Z,51.57
2018-05-31T09:49:42.604Z,51.57
2018-05-31T09:50:52.069Z,51.57
2018-05-31T09:52:01.548Z,51.57
2018-05-31T09:53:10.975Z,51.16
2018-05-31T09:54:20.407Z,51.38
2018-05-31T09:55:30.397Z,51.57
2018-05-31T09:56:40.336Z,51.48
2018-05-31T09:57:50.017Z,51.26
2018-05-31T09:58:59.459Z,51.55
2018-05-31T10:00:08.647Z,51.57
2018-05-31T10:01:18.081Z,51.57
2018-05-31T10:02:27.794Z,51.55
2018-05-31T10:03:37.731Z,51.57
2018-05-31T10:04:46.942Z,51.48
2018-05-31T10:05:55.582Z,51.26
2018-05-31T10:07:05.313Z,51.57
2018-05-31T10:08:14.764Z,51.57
2018-05-31T10:09:24.207Z,51.28
2018-05-31T10:10:33.392Z,51.26
2018-05-31T10:11:43.151Z,51.57
2018-05-31T10:12:52.355Z,51.38
2018-05-31T10:14:01.543Z,51.06
2018-05-31T10:15:10.710Z,51.38
2018-05-31T10:16:20.141Z,51.26
2018-05-31T10:17:29.576Z,51.28
2018-05-31T10:18:38.997Z,51.18
2018-05-31T10:19:48.699Z,51.55
2018-05-31T10:20:58.159Z,51.38
2018-05-31T10:22:07.844Z,51.28
2018-05-31T10:23:17.215Z,51.26
2018-05-31T10:24:26.385Z,51.28
2018-05-31T10:25:35.810Z,51.48
2018-05-31T10:26:45.230Z,51.09
2018-05-31T10:27:53.878Z,51.38
2018-05-31T10:29:03.052Z,51.48
2018-05-31T10:30:12.288Z,51.38
2018-05-31T10:31:21.728Z,51.38
2018-05-31T10:32:30.918Z,51.38
2018-05-31T10:33:40.841Z,51.26
2018-05-31T10:34:50.609Z,51.38
2018-05-31T10:35:59.535Z,51.38
2018-05-31T10:37:09.283Z,51.57
2018-05-31T10:38:18.755Z,51.18
2018-05-31T10:39:27.976Z,51.28
2018-05-31T10:40:37.871Z,51.28
2018-05-31T10:41:47.133Z,51.57
2018-05-31T10:42:56.507Z,51.28
2018-05-31T10:44:06.285Z,51.28
2018-05-31T10:45:14.981Z,51.57
2018-05-31T10:46:24.862Z,51.28
2018-05-31T10:47:34.642Z,51.28
2018-05-31T10:48:44.603Z,51.38
2018-05-31T10:49:54.292Z,51.38
2018-05-31T10:51:03.457Z,51.38
2018-05-31T10:52:12.890Z,51.28
2018-05-31T10:53:22.053Z,51.28
2018-05-31T10:54:31.254Z,51.18
2018-05-31T10:55:40.992Z,51.18
2018-05-31T10:56:50.167Z,51.48
2018-05-31T10:57:59.333Z,51.18
2018-05-31T10:59:08.515Z,51.28
2018-05-31T11:00:18.298Z,51.09
2018-05-31T11:01:28.008Z,51.67
2018-05-31T11:02:37.455Z,51.57
2018-05-31T11:03:46.637Z,51.48
2018-05-31T11:04:55.865Z,51.67
2018-05-31T11:06:05.560Z,51.57
2018-05-31T11:07:14.741Z,51.48
2018-05-31T11:08:24.439Z,51.67
2018-05-31T11:09:34.195Z,51.57
2018-05-31T11:10:44.200Z,51.77
2018-05-31T11:11:53.625Z,51.57
2018-05-31T11:13:03.041Z,51.77
2018-05-31T11:14:11.943Z,51.67
2018-05-31T11:15:21.413Z,51.57
2018-05-31T11:16:30.568Z,51.57
2018-05-31T11:17:40.048Z,51.57
2018-05-31T11:18:49.240Z,51.67
2018-05-31T11:19:58.403Z,51.57
2018-05-31T11:21:07.554Z,51.77
2018-05-31T11:22:17.482Z,51.67
2018-05-31T11:23:26.647Z,51.77
2018-05-31T11:24:35.826Z,51.77
2018-05-31T11:25:45.231Z,51.57
2018-05-31T11:26:54.649Z,51.87
2018-05-31T11:28:04.337Z,51.67
2018-05-31T11:29:13.840Z,51.97
2018-05-31T11:30:23.675Z,51.87
2018-05-31T11:31:32.839Z,51.97
2018-05-31T11:32:42.525Z,52.25
2018-05-31T11:33:51.439Z,51.97
2018-05-31T11:35:00.613Z,51.77
2018-05-31T11:36:10.307Z,52.15
2018-05-31T11:37:19.986Z,51.87
2018-05-31T11:38:28.910Z,52.35
2018-05-31T11:39:38.078Z,52.25
2018-05-31T11:40:47.504Z,52.25
2018-05-31T11:41:56.916Z,52.35
2018-05-31T11:43:06.363Z,52.35
2018-05-31T11:44:16.044Z,52.25
2018-05-31T11:45:24.690Z,52.35
2018-05-31T11:46:34.140Z,52.25
2018-05-31T11:47:43.079Z,52.25
2018-05-31T11:48:52.249Z,52.06
2018-05-31T11:50:01.701Z,52.06
2018-05-31T11:51:10.887Z,52.15
2018-05-31T11:52:20.055Z,52.06
2018-05-31T11:53:29.202Z,52.15
2018-05-31T11:54:38.909Z,51.97
2018-05-31T11:55:48.340Z,52.15
2018-05-31T11:56:56.997Z,52.25
2018-05-31T11:58:06.422Z,51.97
2018-05-31T11:59:15.335Z,52.15
2018-05-31T12:00:25.299Z,52.25
2018-05-31T12:01:35.145Z,51.97
2018-05-31T12:02:45.237Z,52.06
2018-05-31T12:03:54.683Z,51.97
2018-05-31T12:05:03.395Z,51.97
2018-05-31T12:06:12.822Z,52.15
2018-05-31T12:07:22.000Z,52.06
2018-05-31T12:08:31.419Z,51.97
2018-05-31T12:09:41.132Z,52.15
2018-05-31T12:10:50.152Z,52.06
2018-05-31T12:12:00.061Z,52.15
2018-05-31T12:13:09.804Z,52.25
2018-05-31T12:14:18.980Z,52.06
2018-05-31T12:15:27.886Z,52.15
2018-05-31T12:16:37.336Z,51.97
2018-05-31T12:17:46.520Z,51.97
2018-05-31T12:18:55.968Z,51.87
2018-05-31T12:20:04.865Z,52.06
2018-05-31T12:21:14.042Z,51.97
2018-05-31T12:22:23.207Z,52.15
2018-05-31T12:23:32.388Z,51.87
2018-05-31T12:24:41.552Z,51.97
2018-05-31T12:25:51.498Z,51.87
2018-05-31T12:27:00.924Z,52.15
2018-05-31T12:28:10.870Z,51.97
2018-05-31T12:29:20.034Z,51.87
2018-05-31T12:30:29.468Z,51.97
2018-05-31T12:31:39.412Z,52.25
2018-05-31T12:32:48.913Z,52.15
2018-05-31T12:33:58.593Z,52.35
2018-05-31T12:35:08.014Z,52.06
2018-05-31T12:36:17.708Z,52.25
2018-05-31T12:37:27.670Z,52.25
2018-05-31T12:38:36.909Z,52.25
2018-05-31T12:39:46.582Z,52.25
2018-05-31T12:40:56.039Z,52.35
2018-05-31T12:42:05.219Z,51.97
2018-05-31T12:43:15.191Z,52.25
2018-05-31T12:44:24.644Z,52.25
2018-05-31T12:45:34.076Z,52.06
2018-05-31T12:46:43.481Z,51.77
2018-05-31T12:47:52.900Z,51.97
2018-05-31T12:49:02.077Z,51.57
2018-05-31T12:50:11.260Z,51.57
2018-05-31T12:51:20.701Z,51.87
2018-05-31T12:52:29.866Z,51.57
2018-05-31T12:53:39.075Z,51.67
2018-05-31T12:54:49.009Z,51.77
2018-05-31T12:55:58.726Z,51.67
2018-05-31T12:57:07.661Z,51.77
2018-05-31T12:58:17.090Z,51.67
2018-05-31T12:59:25.982Z,51.77
2018-05-31T13:00:35.661Z,51.67
2018-05-31T13:01:45.121Z,51.67
2018-05-31T13:02:54.800Z,51.77
2018-05-31T13:04:04.497Z,51.57
2018-05-31T13:05:13.928Z,51.57
2018-05-31T13:06:23.619Z,51.67
2018-05-31T13:07:33.023Z,51.57
2018-05-31T13:08:42.710Z,51.77
2018-05-31T13:09:52.154Z,51.57
2018-05-31T13:11:01.574Z,51.57
2018-05-31T13:12:10.755Z,51.87
2018-05-31T13:13:19.935Z,51.77
2018-05-31T13:14:29.101Z,51.67
2018-05-31T13:15:38.258Z,51.87
2018-05-31T13:16:48.195Z,51.28
2018-05-31T13:17:57.103Z,51.77
2018-05-31T13:19:06.537Z,51.38
2018-05-31T13:20:15.739Z,51.38
2018-05-31T13:21:24.904Z,51.57
2018-05-31T13:22:34.077Z,51.57
2018-05-31T13:23:43.552Z,51.57
2018-05-31T13:24:52.721Z,51.67
2018-05-31T13:26:01.381Z,51.57
2018-05-31T13:27:10.541Z,51.57
2018-05-31T13:28:19.966Z,51.09
2018-05-31T13:29:29.647Z,51.28
2018-05-31T13:30:39.118Z,51.28
2018-05-31T13:31:48.811Z,51.28
2018-05-31T13:32:57.984Z,51.28
2018-05-31T13:34:07.685Z,51.18
2018-05-31T13:35:16.861Z,51.48
2018-05-31T13:36:26.539Z,51.38
2018-05-31T13:37:36.497Z,51.57
2018-05-31T13:38:45.924Z,51.57
2018-05-31T13:39:55.595Z,51.5
2018-05-31T13:41:04.760Z,51.48
2018-05-31T13:42:14.209Z,51.5
2018-05-31T13:43:23.884Z,51.57
2018-05-31T13:44:33.326Z,51.38
2018-05-31T13:45:43.003Z,51.48
2018-05-31T13:46:51.960Z,51.48
2018-05-31T13:48:01.144Z,51.5
2018-05-31T13:49:10.077Z,51.5
2018-05-31T13:50:19.504Z,51.5
2018-05-31T13:51:28.689Z,51.5
2018-05-31T13:52:38.369Z,51.48
2018-05-31T13:53:47.797Z,51.48
2018-05-31T13:54:57.240Z,51.31
2018-05-31T13:56:06.152Z,51.4
2018-05-31T13:57:15.063Z,51.4
2018-05-31T13:58:25.013Z,51.31
2018-05-31T13:59:34.436Z,51.4
2018-05-31T14:00:43.611Z,51.31
2018-05-31T14:01:52.538Z,51.4
2018-05-31T14:03:02.683Z,51.4
2018-05-31T14:04:11.869Z,51.4
2018-05-31T14:05:21.845Z,51.4
2018-05-31T14:06:31.275Z,51.4
2018-05-31T14:07:40.476Z,51.21
2018-05-31T14:08:49.897Z,51.4
2018-05-31T14:09:59.315Z,51.31
2018-05-31T14:11:08.470Z,51.4
2018-05-31T14:12:18.480Z,51.5
2018-05-31T14:13:28.200Z,51.4
2018-05-31T14:14:37.635Z,51.4
2018-05-31T14:15:46.541Z,51.21
2018-05-31T14:16:56.254Z,51.31
2018-05-31T14:18:05.454Z,51.4
2018-05-31T14:19:14.635Z,51.4
2018-05-31T14:20:23.865Z,51.5
2018-05-31T14:21:33.561Z,51.31
2018-05-31T14:22:42.968Z,51.5
2018-05-31T14:23:52.675Z,51.4
2018-05-31T14:25:01.588Z,51.11
2018-05-31T14:26:11.275Z,51.4
2018-05-31T14:27:20.948Z,51.5
2018-05-31T14:28:30.496Z,51.5
2018-05-31T14:29:39.666Z,51.21
2018-05-31T14:30:49.093Z,51.4
2018-05-31T14:31:58.531Z,51.6
2018-05-31T14:33:07.446Z,51.5
2018-05-31T14:34:17.117Z,51.4
2018-05-31T14:35:26.817Z,51.5
2018-05-31T14:36:36.269Z,51.4
2018-05-31T14:37:45.954Z,51.5
2018-05-31T14:38:55.636Z,51.5
2018-05-31T14:40:05.086Z,51.5
2018-05-31T14:41:14.262Z,51.79
2018-05-31T14:42:23.724Z,51.79
2018-05-31T14:43:33.421Z,51.79
2018-05-31T14:44:42.851Z,51.5
2018-05-31T14:45:52.887Z,51.6
2018-05-31T14:47:02.384Z,51.62
2018-05-31T14:48:12.064Z,51.62
2018-05-31T14:49:21.491Z,51.6
2018-05-31T14:50:30.742Z,51.5
2018-05-31T14:51:40.205Z,51.33
2018-05-31T14:52:49.682Z,51.6
2018-05-31T14:53:59.175Z,51.4
2018-05-31T14:55:07.855Z,51.53
2018-05-31T14:56:16.808Z,51.43
2018-05-31T14:57:26.259Z,51.43
2018-05-31T14:58:35.473Z,51.72